createdAt,value
2019-02-14T00:01:36.764Z,62.80
2019-02-14T00:04:05.056Z,63.90
2019-02-14T00:06:33.049Z,64.40
2019-02-14T00:09:01.318Z,63.80
2019-02-14T00:11:30.421Z,64.30
2019-02-14T00:13:58.386Z,65.00
2019-02-14T00:16:26.664Z,65.20
2019-02-14T00:18:54.909Z,65.90
2019-02-14T00:21:23.926Z,65.70
2019-02-14T00:23:51.918Z,64.60
2019-02-14T00:26:19.959Z,64.30
2019-02-14T00:28:48.370Z,64.20
2019-02-14T00:31:16.510Z,65.30
2019-02-14T00:33:44.628Z,66.70
2019-02-14T00:36:12.744Z,66.50
2019-02-14T00:38:41.053Z,66.30
2019-02-14T00:41:09.034Z,65.70
2019-02-14T00:43:37.996Z,65.80
2019-02-14T00:46:06.098Z,65.30
2019-02-14T00:48:34.035Z,64.40
2019-02-14T00:51:02.143Z,64.90
2019-02-14T00:53:30.128Z,64.10
2019-02-14T00:55:58.214Z,64.20
2019-02-14T00:58:26.198Z,64.40
2019-02-14T01:00:54.214Z,64.20
2019-02-14T01:03:22.197Z,64.40
2019-02-14T01:05:50.949Z,64.00
2019-02-14T01:08:19.075Z,64.40
2019-02-14T01:10:47.070Z,64.20
2019-02-14T01:13:15.078Z,65.00
2019-02-14T01:15:43.726Z,65.40
2019-02-14T01:18:11.990Z,66.30
2019-02-14T01:20:40.061Z,66.60
2019-02-14T01:23:08.320Z,66.60
2019-02-14T01:25:36.390Z,65.50
2019-02-14T01:28:04.424Z,66.10
2019-02-14T01:30:32.340Z,66.10
2019-02-14T01:33:00.497Z,65.90
2019-02-14T01:35:28.444Z,65.80
2019-02-14T01:37:56.633Z,66.90
2019-02-14T01:40:24.906Z,67.70
2019-02-14T01:42:52.857Z,67.30
2019-02-14T01:45:21.067Z,66.60
2019-02-14T01:47:49.015Z,66.70
2019-02-14T01:50:17.206Z,66.60
2019-02-14T01:52:45.234Z,65.40
2019-02-14T01:55:13.882Z,65.30
2019-02-14T01:57:41.865Z,65.30
2019-02-14T02:00:13.108Z,65.80
2019-02-14T02:02:41.094Z,66.40
2019-02-14T02:05:10.073Z,67.10
2019-02-14T02:07:38.045Z,67.20
2019-02-14T02:10:07.894Z,66.90
2019-02-14T02:12:36.162Z,66.30
2019-02-14T02:15:04.793Z,67.00
2019-02-14T02:17:34.758Z,67.50
2019-02-14T02:20:02.813Z,68.10
2019-02-14T02:22:30.778Z,68.00
2019-02-14T02:24:58.750Z,68.40
2019-02-14T02:27:26.796Z,67.10
2019-02-14T02:29:54.785Z,66.90
2019-02-14T02:32:23.043Z,66.60
2019-02-14T02:34:51.075Z,67.00
2019-02-14T02:37:19.124Z,67.70
2019-02-14T02:39:47.091Z,68.60
2019-02-14T02:42:15.344Z,69.30
2019-02-14T02:44:43.291Z,69.80
2019-02-14T02:47:11.261Z,69.50
2019-02-14T02:49:39.341Z,69.30
2019-02-14T02:52:07.301Z,69.50
2019-02-14T02:54:35.331Z,68.90
2019-02-14T02:57:03.636Z,68.10
2019-02-14T02:59:31.725Z,67.60
2019-02-14T03:01:59.691Z,67.90
2019-02-14T03:04:28.760Z,67.60
2019-02-14T03:06:56.756Z,67.00
2019-02-14T03:09:24.728Z,67.50
2019-02-14T03:11:52.707Z,68.00
2019-02-14T03:14:20.859Z,68.80
2019-02-14T03:16:49.079Z,68.60
2019-02-14T03:19:18.557Z,69.00
2019-02-14T03:21:46.574Z,68.90
2019-02-14T03:24:14.869Z,69.10
2019-02-14T03:26:43.042Z,69.70
2019-02-14T03:29:10.991Z,69.90
2019-02-14T03:31:39.016Z,69.00
2019-02-14T03:34:06.967Z,69.50
2019-02-14T03:36:34.918Z,69.70
2019-02-14T03:39:04.247Z,70.50
2019-02-14T03:41:32.413Z,71.20
2019-02-14T03:44:00.476Z,70.60
2019-02-14T03:46:28.408Z,70.50
2019-02-14T03:48:56.411Z,69.60
2019-02-14T03:51:24.647Z,70.00
2019-02-14T03:53:52.631Z,69.40
2019-02-14T03:56:20.609Z,69.30
2019-02-14T03:58:48.741Z,69.10
2019-02-14T04:01:16.808Z,69.40
2019-02-14T04:03:44.744Z,69.40
2019-02-14T04:06:13.168Z,69.30
2019-02-14T04:08:41.201Z,68.70
2019-02-14T04:11:11.165Z,68.20
2019-02-14T04:13:40.438Z,68.60
2019-02-14T04:16:09.585Z,69.60
2019-02-14T04:18:39.048Z,70.60
2019-02-14T04:21:07.234Z,71.70
2019-02-14T04:23:35.494Z,71.90
2019-02-14T04:26:03.448Z,72.70
2019-02-14T04:28:31.613Z,73.20
2019-02-14T04:30:59.571Z,73.00
2019-02-14T04:33:27.488Z,73.50
2019-02-14T04:35:55.478Z,73.20
2019-02-14T04:38:23.592Z,73.80
2019-02-14T04:40:51.734Z,73.70
2019-02-14T04:43:19.966Z,73.90
2019-02-14T04:45:47.936Z,72.60
2019-02-14T04:48:15.880Z,72.60
2019-02-14T04:50:43.873Z,71.70
2019-02-14T04:53:12.136Z,72.00
2019-02-14T04:55:40.392Z,71.90
2019-02-14T04:58:08.625Z,71.40
2019-02-14T05:00:36.749Z,71.00
2019-02-14T05:03:04.971Z,70.40
2019-02-14T05:05:32.990Z,70.90
2019-02-14T05:08:01.006Z,71.30
2019-02-14T05:10:29.158Z,71.00
2019-02-14T05:12:57.107Z,71.10
2019-02-14T05:15:25.336Z,71.00
2019-02-14T05:17:53.328Z,71.70
2019-02-14T05:20:21.251Z,72.00
2019-02-14T05:22:49.600Z,72.20
2019-02-14T05:25:17.597Z,71.90
2019-02-14T05:27:45.623Z,72.10
2019-02-14T05:30:13.663Z,72.70
2019-02-14T05:32:41.588Z,72.80
2019-02-14T05:35:09.611Z,72.70
2019-02-14T05:37:37.530Z,72.60
2019-02-14T05:40:07.211Z,72.20
2019-02-14T05:42:35.672Z,71.70
2019-02-14T05:45:04.050Z,71.70
2019-02-14T05:47:32.036Z,71.50
2019-02-14T05:50:00.329Z,72.10
2019-02-14T05:52:28.355Z,73.20
2019-02-14T05:54:56.289Z,72.90
2019-02-14T05:57:24.321Z,73.20
2019-02-14T05:59:52.776Z,73.20
2019-02-14T06:02:20.983Z,73.20
2019-02-14T06:04:48.928Z,73.40
2019-02-14T06:07:17.016Z,74.10
2019-02-14T06:09:44.997Z,73.60
2019-02-14T06:12:13.100Z,73.00
2019-02-14T06:14:41.024Z,73.00
2019-02-14T06:17:09.073Z,73.10
2019-02-14T06:19:37.397Z,73.30
2019-02-14T06:22:05.634Z,73.20
2019-02-14T06:24:33.785Z,73.20
2019-02-14T06:27:01.758Z,73.30
2019-02-14T06:29:29.749Z,73.70
2019-02-14T06:31:57.766Z,74.00
2019-02-14T06:34:25.810Z,74.10
2019-02-14T06:36:53.769Z,75.10
2019-02-14T06:39:21.734Z,75.80
2019-02-14T06:41:49.697Z,75.80
2019-02-14T06:44:17.954Z,77.10
2019-02-14T06:46:46.223Z,75.90
2019-02-14T06:49:14.232Z,76.20
2019-02-14T06:51:42.604Z,76.70
2019-02-14T06:54:10.638Z,74.70
2019-02-14T06:56:38.627Z,73.30
2019-02-14T06:59:06.624Z,72.50
2019-02-14T07:01:34.589Z,73.00
2019-02-14T07:04:03.246Z,72.40
2019-02-14T07:06:31.486Z,73.00
2019-02-14T07:08:59.510Z,72.90
2019-02-14T07:11:27.507Z,73.50
2019-02-14T07:13:55.754Z,73.70
2019-02-14T07:16:23.989Z,73.50
2019-02-14T07:18:51.970Z,72.70
2019-02-14T07:21:21.852Z,72.90
2019-02-14T07:23:49.884Z,72.50
2019-02-14T07:26:18.162Z,71.60
2019-02-14T07:28:46.303Z,71.60
2019-02-14T07:31:14.331Z,71.80
2019-02-14T07:33:42.323Z,71.30
2019-02-14T07:36:10.445Z,71.40
2019-02-14T07:38:38.551Z,71.30
2019-02-14T07:41:06.598Z,70.40
2019-02-14T07:43:34.849Z,70.00
2019-02-14T07:46:02.901Z,70.10
2019-02-14T07:48:30.932Z,69.80
2019-02-14T07:50:59.126Z,68.50
2019-02-14T07:53:27.070Z,68.50
2019-02-14T07:55:55.432Z,68.10
2019-02-14T07:58:23.433Z,67.10
2019-02-14T08:00:51.716Z,67.30
2019-02-14T08:03:20.284Z,66.90
2019-02-14T08:05:48.400Z,66.70
2019-02-14T08:08:16.477Z,64.70
2019-02-14T08:10:45.612Z,64.60
2019-02-14T08:13:13.748Z,62.50
2019-02-14T08:15:41.752Z,63.20
2019-02-14T08:18:10.166Z,62.50
2019-02-14T08:20:38.123Z,61.20
2019-02-14T08:23:06.116Z,61.00
2019-02-14T08:25:34.145Z,61.60
2019-02-14T08:28:02.182Z,60.50
2019-02-14T08:30:30.525Z,59.50
2019-02-14T08:32:58.515Z,58.90
2019-02-14T08:35:26.660Z,60.00
2019-02-14T08:37:54.705Z,58.60
2019-02-14T08:40:23.928Z,58.60
2019-02-14T08:42:51.901Z,58.60
2019-02-14T08:45:19.897Z,58.10
2019-02-14T08:47:47.868Z,57.80
2019-02-14T08:50:15.934Z,58.80
2019-02-14T08:52:44.439Z,58.80
2019-02-14T08:55:15.072Z,59.60
2019-02-14T08:57:43.138Z,59.20
2019-02-14T09:00:12.043Z,57.90
2019-02-14T09:02:40.309Z,56.90
2019-02-14T09:05:09.587Z,56.80
2019-02-14T09:07:37.999Z,56.60
2019-02-14T09:10:08.533Z,55.80
2019-02-14T09:12:36.566Z,59.20
2019-02-14T09:15:04.953Z,57.40
2019-02-14T09:17:32.954Z,56.90
2019-02-14T09:20:00.935Z,56.60
2019-02-14T09:22:29.168Z,54.40
2019-02-14T09:24:57.166Z,56.70
2019-02-14T09:27:25.138Z,55.40
2019-02-14T09:29:53.104Z,54.00
2019-02-14T09:32:24.790Z,52.40
2019-02-14T09:34:52.928Z,53.30
2019-02-14T09:37:20.889Z,51.70
2019-02-14T09:39:49.460Z,51.90
2019-02-14T09:42:17.536Z,51.90
2019-02-14T09:44:45.835Z,51.80
2019-02-14T09:47:13.806Z,51.60
2019-02-14T09:49:41.965Z,51.80
2019-02-14T09:52:10.087Z,51.90
2019-02-14T09:54:38.372Z,52.40
2019-02-14T09:57:06.401Z,50.70
2019-02-14T09:59:34.438Z,49.70
2019-02-14T10:02:03.010Z,49.70
2019-02-14T10:04:31.276Z,50.70
2019-02-14T10:06:59.342Z,50.00
2019-02-14T10:09:27.332Z,51.20
2019-02-14T10:11:55.891Z,50.70
2019-02-14T10:14:24.340Z,49.80
2019-02-14T10:16:52.290Z,49.80
2019-02-14T10:19:20.578Z,49.20
2019-02-14T10:21:48.860Z,50.20
2019-02-14T10:24:17.811Z,48.20
2019-02-14T10:26:45.780Z,49.00
2019-02-14T10:29:14.052Z,47.40
2019-02-14T10:31:42.294Z,48.10
2019-02-14T10:34:10.324Z,48.20
2019-02-14T10:36:38.308Z,47.20
2019-02-14T10:39:06.281Z,45.20
2019-02-14T10:41:34.578Z,45.70
2019-02-14T10:44:02.667Z,45.60
2019-02-14T10:46:30.734Z,45.00
2019-02-14T10:48:58.889Z,42.50
2019-02-14T10:51:26.986Z,43.00
2019-02-14T10:53:55.292Z,44.10
2019-02-14T10:56:23.382Z,43.10
2019-02-14T10:58:51.603Z,41.40
2019-02-14T11:01:20.110Z,40.90
2019-02-14T11:03:49.582Z,40.50
2019-02-14T11:06:17.718Z,40.90
2019-02-14T11:08:45.859Z,39.20
2019-02-14T11:11:13.977Z,38.10
2019-02-14T11:13:42.362Z,37.80
2019-02-14T11:16:10.656Z,37.10
2019-02-14T11:18:44.195Z,36.30
2019-02-14T11:21:09.666Z,35.20
2019-02-14T11:23:37.806Z,32.50
2019-02-14T11:26:05.818Z,33.40
2019-02-14T11:28:34.050Z,31.90
2019-02-14T11:31:02.152Z,32.80
2019-02-14T11:33:30.568Z,33.30
2019-02-14T11:35:58.845Z,32.70
2019-02-14T11:38:26.855Z,33.10
2019-02-14T11:40:54.907Z,33.30
2019-02-14T11:43:22.954Z,33.80
2019-02-14T11:45:50.925Z,31.10
2019-02-14T11:48:18.965Z,30.00
2019-02-14T11:50:47.484Z,31.30
2019-02-14T11:53:15.567Z,30.00
2019-02-14T11:55:44.307Z,30.00
2019-02-14T11:58:13.216Z,28.50
2019-02-14T12:00:41.465Z,27.60
2019-02-14T12:03:09.598Z,27.40
2019-02-14T12:05:37.638Z,28.40
2019-02-14T12:08:09.445Z,27.80
2019-02-14T12:10:37.542Z,27.90
2019-02-14T12:13:05.573Z,28.30
2019-02-14T12:15:33.707Z,28.70
2019-02-14T12:18:01.809Z,27.70
2019-02-14T12:20:30.082Z,28.30
2019-02-14T12:22:58.134Z,28.40
2019-02-14T12:25:26.257Z,28.30
2019-02-14T12:27:54.471Z,28.30
2019-02-14T12:30:22.625Z,28.10
2019-02-14T12:32:50.629Z,27.70
2019-02-14T12:35:18.770Z,27.50
2019-02-14T12:37:47.296Z,27.20
2019-02-14T12:40:16.450Z,27.50
2019-02-14T12:42:44.854Z,27.40
2019-02-14T12:45:21.601Z,27.10
2019-02-14T12:47:46.593Z,27.00
2019-02-14T12:50:14.843Z,26.90
2019-02-14T12:52:42.878Z,26.50
2019-02-14T12:55:10.982Z,26.50
2019-02-14T12:57:39.026Z,26.40
2019-02-14T13:00:11.823Z,25.50
2019-02-14T13:02:40.424Z,25.30
2019-02-14T13:05:09.212Z,25.00
2019-02-14T13:07:37.522Z,24.10
2019-02-14T13:10:06.835Z,24.50
2019-02-14T13:12:34.872Z,24.70
2019-02-14T13:15:03.563Z,23.20
2019-02-14T13:17:31.962Z,23.30
2019-02-14T13:19:59.996Z,23.00
2019-02-14T13:22:27.994Z,23.30
2019-02-14T13:24:55.971Z,23.40
2019-02-14T13:27:24.246Z,24.20
2019-02-14T13:29:52.214Z,22.10
2019-02-14T13:32:20.291Z,22.00
2019-02-14T13:34:48.281Z,21.50
2019-02-14T13:37:16.329Z,21.10
2019-02-14T13:39:44.570Z,20.80
2019-02-14T13:42:12.690Z,21.50
2019-02-14T13:44:42.972Z,20.20
2019-02-14T13:47:10.905Z,20.00
2019-02-14T13:49:38.908Z,21.30
2019-02-14T13:52:06.845Z,19.60
2019-02-14T13:54:34.941Z,20.60
2019-02-14T13:57:02.916Z,19.60
2019-02-14T13:59:32.113Z,18.90
2019-02-14T14:02:00.247Z,19.50
2019-02-14T14:04:28.501Z,20.20
2019-02-14T14:06:56.596Z,20.70
2019-02-14T14:09:24.603Z,21.80
2019-02-14T14:11:54.499Z,22.40
2019-02-14T14:14:22.741Z,22.00
2019-02-14T14:16:51.326Z,20.70
2019-02-14T14:19:19.414Z,20.40
2019-02-14T14:21:47.765Z,21.10
2019-02-14T14:24:15.729Z,20.70
2019-02-14T14:26:44.333Z,20.30
2019-02-14T14:29:13.607Z,20.10
2019-02-14T14:31:41.711Z,20.70
2019-02-14T14:34:10.540Z,20.90
2019-02-14T14:36:38.796Z,20.50
2019-02-14T14:39:07.867Z,21.40
2019-02-14T14:41:35.797Z,21.90
2019-02-14T14:44:16.469Z,20.20
2019-02-14T14:46:48.985Z,20.60
2019-02-14T14:49:17.452Z,21.80
2019-02-14T14:51:45.606Z,20.90
2019-02-14T14:54:13.852Z,20.20
2019-02-14T14:56:41.979Z,19.90
2019-02-14T14:59:10.026Z,20.90
2019-02-14T15:01:38.291Z,20.80
2019-02-14T15:04:06.363Z,20.50
2019-02-14T15:06:34.346Z,17.50
2019-02-14T15:09:02.695Z,16.20
2019-02-14T15:11:32.027Z,16.40
2019-02-14T15:14:00.333Z,17.10
2019-02-14T15:16:28.344Z,17.30
2019-02-14T15:21:24.418Z,14.90
2019-02-14T15:23:52.661Z,16.90
2019-02-14T15:26:20.903Z,16.90
2019-02-14T15:28:49.005Z,17.40
2019-02-14T15:31:17.018Z,18.00
2019-02-14T15:33:46.182Z,20.00
2019-02-14T15:36:14.355Z,20.80
2019-02-14T15:38:42.433Z,22.10
2019-02-14T15:41:10.744Z,23.10
2019-02-14T15:43:38.853Z,23.30
2019-02-14T15:46:07.085Z,23.40
2019-02-14T15:48:35.054Z,24.70
2019-02-14T15:51:03.054Z,25.70
2019-02-14T15:53:31.174Z,27.10
2019-02-14T15:55:59.200Z,26.80
2019-02-14T15:58:28.698Z,27.20
2019-02-14T16:00:59.073Z,27.60
2019-02-14T16:03:28.189Z,28.90
2019-02-14T16:05:56.812Z,29.60
2019-02-14T16:08:24.781Z,30.70
2019-02-14T16:10:55.597Z,29.80
2019-02-14T16:13:23.004Z,30.40
2019-02-14T16:15:53.722Z,31.00
2019-02-14T16:18:23.130Z,32.00
2019-02-14T16:20:52.727Z,32.20
2019-02-14T16:23:20.753Z,32.80
2019-02-14T16:25:50.038Z,34.90
2019-02-14T16:28:20.080Z,34.20
2019-02-14T16:30:48.187Z,34.30
2019-02-14T16:33:16.233Z,34.80
2019-02-14T16:35:51.214Z,35.70
2019-02-14T16:38:19.350Z,38.90
2019-02-14T16:40:51.827Z,37.60
2019-02-14T16:43:20.215Z,37.10
2019-02-14T16:45:49.824Z,38.10
2019-02-14T16:48:17.860Z,38.70
2019-02-14T16:50:46.051Z,40.50
2019-02-14T16:53:14.174Z,40.40
2019-02-14T16:55:42.215Z,41.10
2019-02-14T16:58:10.259Z,41.70
2019-02-14T17:00:38.280Z,41.90
2019-02-14T17:03:06.796Z,42.50
2019-02-14T17:05:34.882Z,43.00
2019-02-14T17:08:03.379Z,43.20
2019-02-14T17:10:36.936Z,43.80
2019-02-14T17:13:01.602Z,43.70
2019-02-14T17:15:29.727Z,43.70
2019-02-14T17:17:58.602Z,44.80
2019-02-14T17:20:26.621Z,47.70
2019-02-14T17:22:54.641Z,46.20
2019-02-14T17:25:26.023Z,46.10
2019-02-14T17:27:54.132Z,46.30
2019-02-14T17:30:22.445Z,46.80
2019-02-14T17:32:50.712Z,47.20
2019-02-14T17:35:22.458Z,47.60
2019-02-14T17:37:51.116Z,47.40
2019-02-14T17:40:19.264Z,48.00
2019-02-14T17:42:47.551Z,48.90
2019-02-14T17:45:15.672Z,48.00
2019-02-14T17:47:43.923Z,48.00
2019-02-14T17:50:11.982Z,48.50
2019-02-14T17:52:41.162Z,48.80
2019-02-14T17:55:09.743Z,49.00
2019-02-14T17:57:37.865Z,49.50
2019-02-14T18:00:09.202Z,49.80
2019-02-14T18:02:37.544Z,50.20
2019-02-14T18:05:06.642Z,50.20
2019-02-14T18:07:34.998Z,50.50
2019-02-14T18:10:03.772Z,50.90
2019-02-14T18:12:32.085Z,51.70
2019-02-14T18:15:00.295Z,51.60
2019-02-14T18:17:29.296Z,51.10
2019-02-14T18:19:57.403Z,51.10
2019-02-14T18:22:25.885Z,51.80
2019-02-14T18:24:53.913Z,52.30
2019-02-14T18:27:22.169Z,52.30
2019-02-14T18:29:50.160Z,53.10
2019-02-14T18:32:18.643Z,53.10
2019-02-14T18:34:46.725Z,53.00
2019-02-14T18:37:14.701Z,53.10
2019-02-14T18:39:42.875Z,53.50
2019-02-14T18:42:11.884Z,53.90
2019-02-14T18:44:40.072Z,54.70
2019-02-14T18:47:09.580Z,55.60
2019-02-14T18:49:38.047Z,54.90
2019-02-14T18:52:06.380Z,56.80
2019-02-14T18:54:35.363Z,55.00
2019-02-14T18:57:03.370Z,55.20
2019-02-14T18:59:31.333Z,55.60
2019-02-14T19:01:59.507Z,55.70
2019-02-14T19:04:27.478Z,56.80
2019-02-14T19:06:55.528Z,56.80
2019-02-14T19:09:23.646Z,57.40
2019-02-14T19:11:51.643Z,56.40
2019-02-14T19:14:19.833Z,56.60
2019-02-14T19:16:48.166Z,55.40
2019-02-14T19:19:16.572Z,53.90
2019-02-14T19:21:44.649Z,54.30
2019-02-14T19:24:12.866Z,54.60
2019-02-14T19:26:41.175Z,55.10
2019-02-14T19:29:09.439Z,54.80
2019-02-14T19:31:38.546Z,55.20
2019-02-14T19:34:06.637Z,55.70
2019-02-14T19:36:34.692Z,57.30
2019-02-14T19:39:04.269Z,57.50
2019-02-14T19:41:33.541Z,58.10
2019-02-14T19:44:01.525Z,59.20
2019-02-14T19:46:29.616Z,58.20
2019-02-14T19:51:25.845Z,57.90
2019-02-14T19:53:53.927Z,59.20
2019-02-14T19:56:22.032Z,58.80
2019-02-14T19:58:51.036Z,57.70
2019-02-14T20:01:19.040Z,56.80
2019-02-14T20:03:47.412Z,56.80
2019-02-14T20:06:15.692Z,56.80
2019-02-14T20:08:44.033Z,57.50
2019-02-14T20:11:12.010Z,57.00
2019-02-14T20:13:49.145Z,58.10
2019-02-14T20:16:10.119Z,56.20
2019-02-14T20:18:38.703Z,56.10
2019-02-14T20:21:06.896Z,58.10
2019-02-14T20:23:34.809Z,56.20
2019-02-14T20:26:02.768Z,57.50
2019-02-14T20:28:30.828Z,58.50
2019-02-14T20:30:58.911Z,57.70
2019-02-14T20:33:27.084Z,58.20
2019-02-14T20:35:55.441Z,58.70
2019-02-14T20:38:24.052Z,59.70
2019-02-14T20:40:52.570Z,59.40
2019-02-14T20:43:20.602Z,58.70
2019-02-14T20:45:48.682Z,59.10
2019-02-14T20:48:16.748Z,58.40
2019-02-14T20:50:46.328Z,57.90
2019-02-14T20:53:14.295Z,58.80
2019-02-14T20:55:42.559Z,58.40
2019-02-14T20:58:10.670Z,57.70
2019-02-14T21:00:38.912Z,58.40
2019-02-14T21:03:06.966Z,59.10
2019-02-14T21:05:35.078Z,58.80
2019-02-14T21:08:03.139Z,58.90
2019-02-14T21:10:32.095Z,57.80
2019-02-14T21:13:00.398Z,58.80
2019-02-14T21:15:28.512Z,57.80
2019-02-14T21:17:56.585Z,56.00
2019-02-14T21:20:24.854Z,57.30
2019-02-14T21:22:52.875Z,57.70
2019-02-14T21:25:23.352Z,58.40
2019-02-14T21:27:51.138Z,59.30
2019-02-14T21:30:19.285Z,59.10
2019-02-14T21:32:47.465Z,59.50
2019-02-14T21:35:15.759Z,60.20
2019-02-14T21:37:44.114Z,62.50
2019-02-14T21:40:12.378Z,62.10
2019-02-14T21:42:40.454Z,62.50
2019-02-14T21:45:10.365Z,60.30
2019-02-14T21:47:38.451Z,60.20
2019-02-14T21:50:08.564Z,60.00
2019-02-14T21:52:36.617Z,61.40
2019-02-14T21:55:06.176Z,61.30
2019-02-14T21:57:34.687Z,61.60
2019-02-14T22:00:02.901Z,62.10
2019-02-14T22:02:30.942Z,62.40
2019-02-14T22:04:58.930Z,61.50
2019-02-14T22:07:26.950Z,61.10
2019-02-14T22:09:55.454Z,61.60
2019-02-14T22:12:38.664Z,61.70
2019-02-14T22:14:53.821Z,61.90
2019-02-14T22:17:22.807Z,61.70
2019-02-14T22:19:51.063Z,61.60
2019-02-14T22:22:19.489Z,61.40
2019-02-14T22:24:47.796Z,63.40
2019-02-14T22:27:15.815Z,62.30
2019-02-14T22:29:44.122Z,62.40
2019-02-14T22:32:12.363Z,61.80
2019-02-14T22:34:40.470Z,60.80
2019-02-14T22:37:08.487Z,60.60
2019-02-14T22:39:36.550Z,62.00
2019-02-14T22:42:04.521Z,61.10
2019-02-14T22:44:33.058Z,61.60
2019-02-14T22:47:01.424Z,61.10
2019-02-14T22:49:29.422Z,61.90
2019-02-14T22:51:57.458Z,62.60
2019-02-14T22:54:25.580Z,62.30
2019-02-14T22:56:53.532Z,63.20
2019-02-14T22:59:21.529Z,62.40
2019-02-14T23:01:49.824Z,63.00
2019-02-14T23:04:17.948Z,63.30
2019-02-14T23:06:46.260Z,63.40
2019-02-14T23:09:14.705Z,63.60
2019-02-14T23:11:42.975Z,64.20
2019-02-14T23:14:11.090Z,63.80
2019-02-14T23:16:39.055Z,65.00
2019-02-14T23:19:07.109Z,63.50
2019-02-14T23:21:35.152Z,64.30
2019-02-14T23:24:03.126Z,64.00
2019-02-14T23:26:31.585Z,64.90
2019-02-14T23:28:59.736Z,64.10
2019-02-14T23:31:27.719Z,64.40
2019-02-14T23:33:55.705Z,64.00
2019-02-14T23:36:23.672Z,64.20
2019-02-14T23:38:51.886Z,64.20
2019-02-14T23:41:19.915Z,64.10
2019-02-14T23:43:47.944Z,64.30
2019-02-14T23:46:16.187Z,62.50
2019-02-14T23:48:44.203Z,62.90
2019-02-14T23:51:12.694Z,62.00
2019-02-14T23:53:40.905Z,60.60
2019-02-14T23:56:08.893Z,62.00
2019-02-14T23:58:36.909Z,62.30
